Lubbock, TX (79424)

1:27 PM CDT on July 28, 2016 (GMT -0500)
Woodlank Park | | Change Station

Elev 3264 ft 33.52 °N, 101.92 °W | Updated 2 seconds ago

Partly Cloudy
Partly Cloudy
94.6 °F
Feels Like 98 °F
N
1.7
Wind Variable Wind from NE

Today
High -- | Low -- °F
--% Chance of Precip.
Yesterday
High -- | Low -- °F
Precip. -- in
Pressure 29.94 in
Visibility 10.0 miles
Clouds Few 6500 ft
Few 25000 ft
Heat Index 98 °F
Dew Point 66 °F
Humidity 39%
Rainfall 0.00 in
Snow Depth Not available.
6:57 AM 8:50 PM
Waning Crescent, 30% visible
METAR KLBB 281753Z COR VRB04KT 10SM FEW065 FEW250 32/15 A3011 RMK AO2 SLP136 MOD CU SE AND SW T03220150 10328 20189 58009
Pressure 29.94 in
Visibility 10.0 miles
Clouds Few 6500 ft
Few 25000 ft
Heat Index 98 °F
Dew Point 66 °F
Humidity 39%
Rainfall 0.00 in
Snow Depth Not available.
6:57 AM 8:50 PM
Waning Crescent, 30% visible
METAR KLBB 281753Z COR VRB04KT 10SM FEW065 FEW250 32/15 A3011 RMK AO2 SLP136 MOD CU SE AND SW T03220150 10328 20189 58009

10-Day Weather Forecast

Almanac

Astronomy

Jul. 28, 2016 Rise Set
Actual Time
Civil Twilight
Nautical Twilight
Astronomical Twilight
Moon
Length of Visible Light
Length of Day
Tomorrow will be .
, % of the Moon is Illuminated

Today's Extremes

State Highs State Lows

Community

WunderPhotos

Upload Photos

1,928,174 photos uploaded!

WunderBlog® & News

Nearby

Air Quality

  Air Quality AQ Index Pollutant
Not available.

Snow Depth

Station Depth Elevation

Earthquake Activity

City Distance Mag. Time & Date
Minimum magnitude displayed is 2.5.

Coastal Water Temperatures

Place Temperature

Stations

Nearby Weather Stations

Station Location Temp. Windchill Dew Point Humidity Wind Precip. Elev Updated Type
                   

Watches & Warnings

There are currently no watches in effect.